Airfield :
LOGIN :

Register | Disclaimer

   EN    FR    IT 

 










Legend :    VFR   Marginal VFR   IFR   Intensive IFR   Very Intensive IFR
Visi :
Ceiling :
>= 8 km
>= 3000ft
5 to 8 km
1000 to 3000 ft
1500m to 5 km
500 to 1000 ft
800 to 1500m
200 to 500 ft
< 800m
< 200 ft
Symbols :   Thunderstorms  Fog  Heavy snow  Heavy precipitations  Wind > 20 kt
SIGMETs :     Misc.  Thunderstorms  Icing  Turbulence  Mountain Waves  Volcanic Ashes






- Airport Elevation : 353 ft
- IATA code : LIN


LIML - Milano Linate

CURRENT METAR :
  • 122120Z 06003KT 350V090 9999 FEW090 07/06 Q0996 NOSIG

EXPIRED METARs :
  • 122050Z 07003KT 9999 SCT090 08/07 Q0996 NOSIG
  • 122020Z VRB02KT CAVOK 08/07 Q0996 NOSIG
  • 121950Z VRB02KT CAVOK 08/07 Q0996 NOSIG
  • 121920Z 18003KT 150V210 9999 SCT090 08/07 Q0996 NOSIG
  • 121850Z 22003KT 170V270 9999 FEW040 SCT090 09/07 Q0996 NOSIG

TAF TAF LIML
Valid from the 12 at 18:00 until the 13 at 18:00 UTC


121700Z 1218/1318 VRB05KT 9999 SCT025 BKN060
TEMPO 1302/1308 2000 BCFG
TEMPO 1310/1316 25010KT



MET'MAP, your aeronautical weather chart ! - Copyright ORBIFLY December 2007 - Disclaimer

ORBIFLY MET'MAP TEAM :

Programming & Development : Alexandra Zaïnal
Concept & Development : Baudouin d'Aumeries
Co-Development & Prog : Marc-Olivier Méhu
Technical & hardware support : Manuel Goepfert

Contact : metmap@orbifly.com




SOURCES & CREDITS :

   NOAA